createdAt,value
2022-10-01T00:01:30.629Z,100.00
2022-10-01T00:03:58.660Z,100.00
2022-10-01T00:06:26.708Z,100.00
2022-10-01T00:08:55.149Z,100.00
2022-10-01T00:11:26.742Z,100.00
2022-10-01T00:13:54.891Z,100.00
2022-10-01T00:16:24.593Z,100.00
2022-10-01T00:18:55.715Z,100.00
2022-10-01T00:21:25.114Z,100.00
2022-10-01T00:23:57.367Z,100.00
2022-10-01T00:26:27.393Z,100.00
2022-10-01T00:28:59.392Z,100.00
2022-10-01T00:31:27.853Z,100.00
2022-10-01T00:33:58.005Z,100.00
2022-10-01T00:36:26.407Z,100.00
2022-10-01T00:39:00.435Z,100.00
2022-10-01T00:41:30.173Z,100.00
2022-10-01T00:44:00.203Z,100.00
2022-10-01T00:46:41.016Z,100.00
2022-10-01T00:49:20.515Z,100.00
2022-10-01T00:51:51.454Z,100.00
2022-10-01T00:54:22.746Z,100.00
2022-10-01T00:56:51.746Z,100.00
2022-10-01T00:59:20.511Z,100.00
2022-10-01T01:01:48.859Z,100.00
2022-10-01T01:04:16.989Z,100.00
2022-10-01T01:06:46.429Z,100.00
2022-10-01T01:09:14.434Z,100.00
2022-10-01T01:11:45.861Z,100.00
2022-10-01T01:14:32.696Z,100.00
2022-10-01T01:17:08.735Z,100.00
2022-10-01T01:19:47.041Z,100.00
2022-10-01T01:22:15.747Z,100.00
2022-10-01T01:24:48.062Z,100.00
2022-10-01T01:27:19.263Z,100.00
2022-10-01T01:29:56.504Z,100.00
2022-10-01T01:32:28.044Z,100.00
2022-10-01T01:34:57.186Z,100.00
2022-10-01T01:37:27.892Z,100.00
2022-10-01T01:39:58.855Z,100.00
2022-10-01T01:42:31.299Z,100.00
2022-10-01T01:45:01.096Z,100.00
2022-10-01T01:47:30.572Z,100.00
2022-10-01T01:49:59.580Z,100.00
2022-10-01T01:52:27.843Z,100.00
2022-10-01T01:54:56.826Z,100.00
2022-10-01T01:57:24.745Z,100.00
2022-10-01T01:59:54.209Z,100.00
2022-10-01T02:02:28.584Z,100.00
2022-10-01T02:05:00.406Z,100.00
2022-10-01T02:07:28.555Z,100.00
2022-10-01T02:10:14.924Z,100.00
2022-10-01T02:12:55.015Z,100.00
2022-10-01T02:15:32.188Z,100.00
2022-10-01T02:18:02.958Z,100.00
2022-10-01T02:20:43.695Z,100.00
2022-10-01T02:23:13.704Z,100.00
2022-10-01T02:25:46.506Z,100.00
2022-10-01T02:28:16.803Z,100.00
2022-10-01T02:30:45.304Z,100.00
2022-10-01T02:33:14.970Z,100.00
2022-10-01T02:35:45.323Z,100.00
2022-10-01T02:38:15.273Z,100.00
2022-10-01T02:40:44.987Z,100.00
2022-10-01T02:43:16.516Z,100.00
2022-10-01T02:45:46.561Z,100.00
2022-10-01T02:48:17.604Z,100.00
2022-10-01T02:50:50.957Z,100.00
2022-10-01T02:53:21.938Z,100.00
2022-10-01T02:55:50.911Z,100.00
2022-10-01T02:58:19.217Z,100.00
2022-10-01T03:00:47.291Z,100.00
2022-10-01T03:03:15.263Z,100.00
2022-10-01T03:05:43.207Z,100.00
2022-10-01T03:08:11.141Z,100.00
2022-10-01T03:10:42.372Z,100.00
2022-10-01T03:13:12.842Z,100.00
2022-10-01T03:15:40.968Z,100.00
2022-10-01T03:18:09.013Z,100.00
2022-10-01T03:20:36.952Z,100.00
2022-10-01T03:23:04.859Z,100.00
2022-10-01T03:25:36.497Z,100.00
2022-10-01T03:28:04.530Z,100.00
2022-10-01T03:30:33.337Z,100.00
2022-10-01T03:33:01.320Z,100.00
2022-10-01T03:35:29.338Z,100.00
2022-10-01T03:37:57.367Z,100.00
2022-10-01T03:40:25.448Z,100.00
2022-10-01T03:42:53.415Z,100.00
2022-10-01T03:45:21.542Z,100.00
2022-10-01T03:47:52.947Z,100.00
2022-10-01T03:50:22.061Z,100.00
2022-10-01T03:52:51.429Z,100.00
2022-10-01T03:55:19.560Z,100.00
2022-10-01T03:57:47.699Z,100.00
2022-10-01T04:00:15.679Z,100.00
2022-10-01T04:02:43.829Z,100.00
2022-10-01T04:05:15.231Z,100.00
2022-10-01T04:07:43.423Z,100.00
2022-10-01T04:10:11.895Z,100.00
2022-10-01T04:12:39.891Z,100.00
2022-10-01T04:15:08.218Z,100.00
2022-10-01T04:17:36.507Z,100.00
2022-10-01T04:20:04.619Z,100.00
2022-10-01T04:22:35.974Z,100.00
2022-10-01T04:25:03.918Z,100.00
2022-10-01T04:27:31.829Z,100.00
2022-10-01T04:29:59.656Z,100.00
2022-10-01T04:32:27.484Z,100.00
2022-10-01T04:34:55.365Z,100.00
2022-10-01T04:37:23.884Z,100.00
2022-10-01T04:39:51.694Z,100.00
2022-10-01T04:42:20.234Z,100.00
2022-10-01T04:44:48.169Z,100.00
2022-10-01T04:47:16.097Z,100.00
2022-10-01T04:49:43.997Z,100.00
2022-10-01T04:52:11.941Z,100.00
2022-10-01T04:54:39.866Z,100.00
2022-10-01T04:57:07.742Z,100.00
2022-10-01T04:59:35.594Z,100.00
2022-10-01T05:02:03.486Z,100.00
2022-10-01T05:04:31.365Z,100.00
2022-10-01T05:06:59.315Z,100.00
2022-10-01T05:09:27.239Z,100.00
2022-10-01T05:11:55.180Z,100.00
2022-10-01T05:14:23.065Z,100.00
2022-10-01T05:16:50.847Z,100.00
2022-10-01T05:19:18.784Z,100.00
2022-10-01T05:21:46.732Z,100.00
2022-10-01T05:24:16.256Z,100.00
2022-10-01T05:26:44.158Z,100.00
2022-10-01T05:29:15.298Z,100.00
2022-10-01T05:31:44.434Z,100.00
2022-10-01T05:34:12.713Z,100.00
2022-10-01T05:36:40.661Z,100.00
2022-10-01T05:39:08.568Z,100.00
2022-10-01T05:41:36.938Z,100.00
2022-10-01T05:44:06.180Z,100.00
2022-10-01T05:46:34.002Z,100.00
2022-10-01T05:49:01.951Z,100.00
2022-10-01T05:51:30.281Z,100.00
2022-10-01T05:54:04.466Z,100.00
2022-10-01T05:56:34.146Z,100.00
2022-10-01T05:59:07.104Z,100.00
2022-10-01T06:01:35.131Z,100.00
2022-10-01T06:04:03.632Z,100.00
2022-10-01T06:06:31.783Z,100.00
2022-10-01T06:08:59.743Z,100.00
2022-10-01T06:11:27.749Z,100.00
2022-10-01T06:13:55.589Z,100.00
2022-10-01T06:16:23.585Z,100.00
2022-10-01T06:18:57.482Z,100.00
2022-10-01T06:21:28.588Z,100.00
2022-10-01T06:23:56.604Z,100.00
2022-10-01T06:26:24.737Z,100.00
2022-10-01T06:28:52.823Z,100.00
2022-10-01T06:31:21.477Z,100.00
2022-10-01T06:33:49.524Z,100.00
2022-10-01T06:36:17.487Z,100.00
2022-10-01T06:38:47.810Z,100.00
2022-10-01T06:41:15.749Z,100.00
2022-10-01T06:43:43.556Z,100.00
2022-10-01T06:46:11.645Z,100.00
2022-10-01T06:48:39.564Z,100.00
2022-10-01T06:51:08.648Z,100.00
2022-10-01T06:53:36.585Z,100.00
2022-10-01T06:56:05.683Z,100.00
2022-10-01T06:58:33.916Z,100.00
2022-10-01T07:01:03.946Z,100.00
2022-10-01T07:03:32.089Z,100.00
2022-10-01T07:06:04.704Z,100.00
2022-10-01T07:08:33.418Z,100.00
2022-10-01T07:11:03.685Z,100.00
2022-10-01T07:13:31.674Z,100.00
2022-10-01T07:15:59.603Z,100.00
2022-10-01T07:18:27.468Z,100.00
2022-10-01T07:20:56.859Z,100.00
2022-10-01T07:26:10.251Z,100.00
2022-10-01T07:28:38.124Z,100.00
2022-10-01T07:31:08.009Z,100.00
2022-10-01T07:33:35.877Z,100.00
2022-10-01T07:36:05.008Z,100.00
2022-10-01T07:38:36.217Z,100.00
2022-10-01T07:41:04.662Z,100.00
2022-10-01T07:43:34.360Z,100.00
2022-10-01T07:46:03.605Z,100.00
2022-10-01T07:48:32.564Z,100.00
2022-10-01T07:51:00.574Z,100.00
2022-10-01T07:53:28.693Z,100.00
2022-10-01T07:56:01.217Z,100.00
2022-10-01T07:58:29.323Z,100.00
2022-10-01T08:00:58.851Z,100.00
2022-10-01T08:03:44.412Z,100.00
2022-10-01T08:06:12.473Z,100.00
2022-10-01T08:08:40.305Z,100.00
2022-10-01T08:11:13.213Z,100.00
2022-10-01T08:13:41.316Z,100.00
2022-10-01T08:16:14.384Z,100.00
2022-10-01T08:18:45.530Z,100.00
2022-10-01T08:21:17.868Z,100.00
2022-10-01T08:23:45.805Z,100.00
2022-10-01T08:26:20.346Z,100.00
2022-10-01T08:28:48.213Z,100.00
2022-10-01T08:31:16.284Z,100.00
2022-10-01T08:33:44.401Z,100.00
2022-10-01T08:36:11.209Z,100.00
2022-10-01T08:44:22.090Z,100.00
2022-10-01T08:46:50.512Z,100.00
2022-10-01T08:49:35.082Z,100.00
2022-10-01T08:52:10.945Z,100.00
2022-10-01T08:54:42.956Z,100.00
2022-10-01T08:59:59.572Z,100.00
2022-10-01T09:02:27.581Z,100.00
2022-10-01T09:05:02.982Z,100.00
2022-10-01T09:10:19.457Z,100.00
2022-10-01T09:12:51.986Z,100.00
2022-10-01T09:17:58.616Z,100.00
2022-10-01T09:20:31.745Z,100.00
2022-10-01T09:23:18.985Z,100.00
2022-10-01T09:26:10.342Z,100.00
2022-10-01T09:28:38.766Z,100.00
2022-10-01T09:31:36.437Z,100.00
2022-10-01T09:34:12.033Z,100.00
2022-10-01T09:36:47.581Z,100.00
2022-10-01T09:39:20.345Z,100.00
2022-10-01T09:41:48.510Z,100.00
2022-10-01T09:44:19.049Z,100.00
2022-10-01T09:46:47.268Z,100.00
2022-10-01T09:51:57.805Z,100.00
2022-10-01T09:54:31.585Z,100.00
2022-10-01T09:57:06.362Z,100.00
2022-10-01T09:59:43.877Z,100.00
2022-10-01T10:02:19.654Z,100.00
2022-10-01T10:05:24.109Z,100.00
2022-10-01T10:07:53.589Z,100.00
2022-10-01T10:10:26.058Z,100.00
2022-10-01T10:13:01.869Z,100.00
2022-10-01T10:15:33.220Z,100.00
2022-10-01T10:18:06.612Z,100.00
2022-10-01T10:20:42.148Z,100.00
2022-10-01T10:25:55.031Z,100.00
2022-10-01T10:28:24.033Z,100.00
2022-10-01T10:30:53.865Z,100.00
2022-10-01T10:33:23.129Z,100.00
2022-10-01T10:38:31.432Z,100.00
2022-10-01T10:41:00.213Z,100.00
2022-10-01T10:43:31.311Z,100.00
2022-10-01T10:45:59.351Z,95.82
2022-10-01T10:48:36.856Z,96.24
2022-10-01T10:51:05.646Z,97.58
2022-10-01T10:53:44.091Z,91.01
2022-10-01T10:56:30.081Z,87.20
2022-10-01T10:59:09.970Z,86.46
2022-10-01T11:01:41.719Z,81.34
2022-10-01T11:04:20.944Z,75.20
2022-10-01T11:06:57.347Z,74.12
2022-10-01T11:09:27.834Z,75.52
2022-10-01T11:12:01.846Z,77.28
2022-10-01T11:14:32.873Z,81.18
2022-10-01T11:17:05.913Z,74.74
2022-10-01T11:19:33.909Z,76.18
2022-10-01T11:22:18.077Z,81.18
2022-10-01T11:25:01.177Z,71.77
2022-10-01T11:27:29.865Z,74.77
2022-10-01T11:30:10.086Z,75.56
2022-10-01T11:32:39.735Z,73.77
2022-10-01T11:35:12.141Z,70.82
2022-10-01T11:37:43.070Z,76.10
2022-10-01T11:40:18.107Z,71.83
2022-10-01T11:42:47.281Z,72.72
2022-10-01T11:45:19.638Z,73.13
2022-10-01T11:47:54.919Z,74.59
2022-10-01T11:50:28.111Z,62.79
2022-10-01T11:53:04.969Z,61.63
2022-10-01T11:55:42.969Z,65.45
2022-10-01T11:58:46.025Z,64.32
2022-10-01T12:01:28.965Z,60.20
2022-10-01T12:04:11.949Z,62.63
2022-10-01T12:06:43.414Z,63.91
2022-10-01T12:09:18.114Z,62.74
2022-10-01T12:11:52.805Z,64.06
2022-10-01T12:14:23.522Z,61.22
2022-10-01T12:17:01.224Z,60.39
2022-10-01T12:19:31.942Z,63.64
2022-10-01T12:22:04.107Z,65.65
2022-10-01T12:24:36.540Z,63.49
2022-10-01T12:27:38.646Z,59.64
2022-10-01T12:30:06.506Z,58.17
2022-10-01T12:32:40.355Z,59.98
2022-10-01T12:35:38.691Z,67.17
2022-10-01T12:38:16.840Z,73.16
2022-10-01T12:40:51.387Z,80.53
2022-10-01T12:43:25.763Z,81.98
2022-10-01T12:46:02.690Z,85.00
2022-10-01T12:48:48.396Z,83.47
2022-10-01T12:51:16.161Z,81.13
2022-10-01T12:53:44.050Z,78.05
2022-10-01T12:56:30.146Z,79.17
2022-10-01T12:58:58.014Z,84.75
2022-10-01T13:01:36.233Z,100.00
2022-10-01T13:04:05.118Z,100.00
2022-10-01T13:06:47.677Z,100.00
2022-10-01T13:09:26.682Z,100.00
2022-10-01T13:11:58.263Z,100.00
2022-10-01T13:14:26.332Z,100.00
2022-10-01T13:17:00.084Z,100.00
2022-10-01T13:19:27.982Z,100.00
2022-10-01T13:22:07.714Z,100.00
2022-10-01T13:24:40.926Z,100.00
2022-10-01T13:27:23.198Z,100.00
2022-10-01T13:30:00.345Z,100.00
2022-10-01T13:32:28.435Z,98.08
2022-10-01T13:34:57.423Z,80.09
2022-10-01T13:37:36.680Z,72.38
2022-10-01T13:40:20.625Z,73.79
2022-10-01T13:42:48.945Z,77.01
2022-10-01T13:45:25.739Z,79.72
2022-10-01T13:50:40.988Z,83.46
2022-10-01T13:53:15.784Z,86.59
2022-10-01T13:55:45.132Z,86.69
2022-10-01T13:58:33.758Z,88.56
2022-10-01T14:01:03.745Z,92.00
2022-10-01T14:03:40.496Z,94.95
2022-10-01T14:06:15.719Z,97.49
2022-10-01T14:08:49.978Z,99.52
2022-10-01T14:11:37.014Z,98.46
2022-10-01T14:14:26.585Z,100.00
2022-10-01T14:16:55.929Z,100.00
2022-10-01T14:19:25.026Z,100.00
2022-10-01T14:22:04.845Z,100.00
2022-10-01T14:24:44.731Z,100.00
2022-10-01T14:27:18.868Z,100.00
2022-10-01T14:29:52.816Z,100.00
2022-10-01T14:32:26.552Z,100.00
2022-10-01T14:34:57.422Z,100.00
2022-10-01T14:37:25.817Z,100.00
2022-10-01T14:40:12.726Z,100.00
2022-10-01T14:42:40.536Z,100.00
2022-10-01T14:45:18.095Z,100.00
2022-10-01T14:48:02.861Z,100.00
2022-10-01T14:50:37.757Z,100.00
2022-10-01T14:53:06.458Z,100.00
2022-10-01T14:55:34.988Z,100.00
2022-10-01T14:58:04.932Z,100.00
2022-10-01T15:00:52.406Z,100.00
2022-10-01T15:03:20.264Z,100.00
2022-10-01T15:05:51.449Z,100.00
2022-10-01T15:08:41.973Z,100.00
2022-10-01T15:11:22.304Z,100.00
2022-10-01T15:14:12.505Z,100.00
2022-10-01T15:16:41.606Z,100.00
2022-10-01T15:19:15.819Z,100.00
2022-10-01T15:21:43.688Z,100.00
2022-10-01T15:24:20.405Z,100.00
2022-10-01T15:26:49.425Z,100.00
2022-10-01T15:29:17.552Z,100.00
2022-10-01T15:31:49.891Z,100.00
2022-10-01T15:34:22.860Z,100.00
2022-10-01T15:39:33.980Z,100.00
2022-10-01T15:42:07.744Z,100.00
2022-10-01T15:47:38.152Z,100.00
2022-10-01T15:50:12.918Z,100.00
2022-10-01T15:52:52.473Z,100.00
2022-10-01T15:55:27.572Z,100.00
2022-10-01T15:58:04.524Z,100.00
2022-10-01T16:00:57.751Z,100.00
2022-10-01T16:03:40.808Z,100.00
2022-10-01T16:06:17.485Z,100.00
2022-10-01T16:09:00.216Z,100.00
2022-10-01T16:12:04.916Z,100.00
2022-10-01T16:15:38.656Z,100.00
2022-10-01T16:19:07.679Z,100.00
2022-10-01T16:21:40.273Z,100.00
2022-10-01T16:24:21.773Z,100.00
2022-10-01T16:26:52.308Z,100.00
2022-10-01T16:34:26.210Z,100.00
2022-10-01T16:37:16.623Z,100.00
2022-10-01T16:39:44.734Z,100.00
2022-10-01T16:42:23.818Z,100.00
2022-10-01T16:44:52.718Z,100.00
2022-10-01T16:47:20.531Z,100.00
2022-10-01T16:49:50.451Z,100.00
2022-10-01T16:52:18.623Z,100.00
2022-10-01T16:54:50.353Z,100.00
2022-10-01T16:57:21.759Z,100.00
2022-10-01T16:59:52.659Z,100.00
2022-10-01T17:02:20.573Z,100.00
2022-10-01T17:04:48.951Z,100.00
2022-10-01T17:07:16.782Z,100.00
2022-10-01T17:09:44.753Z,100.00
2022-10-01T17:12:12.769Z,100.00
2022-10-01T17:14:40.795Z,100.00
2022-10-01T17:17:08.645Z,100.00
2022-10-01T17:19:36.457Z,100.00
2022-10-01T17:22:04.365Z,100.00
2022-10-01T17:24:38.669Z,100.00
2022-10-01T17:27:06.505Z,100.00
2022-10-01T17:29:34.598Z,100.00
2022-10-01T17:32:02.528Z,100.00
2022-10-01T17:34:35.765Z,100.00
2022-10-01T17:37:03.604Z,100.00
2022-10-01T17:39:33.009Z,100.00
2022-10-01T17:42:00.904Z,100.00
2022-10-01T17:44:28.908Z,100.00
2022-10-01T17:46:56.714Z,100.00
2022-10-01T17:49:24.847Z,100.00
2022-10-01T17:51:53.516Z,100.00
2022-10-01T17:54:44.174Z,100.00
2022-10-01T17:57:12.190Z,100.00
2022-10-01T17:59:40.073Z,100.00
2022-10-01T18:02:42.282Z,100.00
2022-10-01T18:05:17.322Z,100.00
2022-10-01T18:07:45.489Z,100.00
2022-10-01T18:10:13.704Z,100.00
2022-10-01T18:12:45.699Z,100.00
2022-10-01T18:15:20.901Z,100.00
2022-10-01T18:18:48.468Z,100.00
2022-10-01T18:20:40.291Z,100.00
2022-10-01T18:23:08.192Z,100.00
2022-10-01T18:25:36.128Z,100.00
2022-10-01T18:28:04.003Z,100.00
2022-10-01T18:30:31.957Z,100.00
2022-10-01T18:33:02.927Z,100.00
2022-10-01T18:35:34.691Z,100.00
2022-10-01T18:38:14.523Z,100.00
2022-10-01T18:43:22.171Z,100.00
2022-10-01T18:45:59.300Z,100.00
2022-10-01T18:48:52.516Z,100.00
2022-10-01T18:51:23.210Z,100.00
2022-10-01T18:54:30.195Z,100.00
2022-10-01T18:56:57.933Z,100.00
2022-10-01T18:59:35.707Z,100.00
2022-10-01T19:02:06.793Z,100.00
2022-10-01T19:04:46.758Z,100.00
2022-10-01T19:07:22.741Z,100.00
2022-10-01T19:10:15.881Z,100.00
2022-10-01T19:12:52.826Z,100.00
2022-10-01T19:15:54.710Z,100.00
2022-10-01T19:18:29.751Z,100.00
2022-10-01T19:21:08.732Z,100.00
2022-10-01T19:23:42.758Z,100.00
2022-10-01T19:26:22.058Z,100.00
2022-10-01T19:29:00.663Z,100.00
2022-10-01T19:31:43.757Z,100.00
2022-10-01T19:34:28.536Z,100.00
2022-10-01T19:36:59.956Z,100.00
2022-10-01T19:39:31.184Z,100.00
2022-10-01T19:55:32.987Z,100.00
2022-10-01T19:58:12.022Z,100.00
2022-10-01T20:00:40.209Z,100.00
2022-10-01T20:03:13.377Z,100.00
2022-10-01T20:05:46.197Z,100.00
2022-10-01T20:08:27.878Z,100.00
2022-10-01T20:11:00.353Z,100.00
2022-10-01T20:13:31.325Z,100.00
2022-10-01T20:16:14.926Z,100.00
2022-10-01T20:18:51.774Z,100.00
2022-10-01T20:21:19.621Z,100.00
2022-10-01T20:23:53.638Z,100.00
2022-10-01T20:26:31.054Z,100.00
2022-10-01T20:29:17.171Z,100.00
2022-10-01T20:31:57.497Z,100.00
2022-10-01T20:34:32.141Z,100.00
2022-10-01T20:37:09.107Z,100.00
2022-10-01T20:39:44.153Z,100.00
2022-10-01T20:42:16.149Z,100.00
2022-10-01T20:44:44.998Z,100.00
2022-10-01T20:50:12.266Z,100.00
2022-10-01T20:53:15.069Z,100.00
2022-10-01T20:55:48.637Z,100.00
2022-10-01T20:58:19.922Z,100.00
2022-10-01T21:00:56.051Z,100.00
2022-10-01T21:03:26.911Z,100.00
2022-10-01T21:05:59.836Z,100.00
2022-10-01T21:08:28.001Z,100.00
2022-10-01T21:11:01.166Z,100.00
2022-10-01T21:13:43.434Z,100.00
2022-10-01T21:16:11.609Z,100.00
2022-10-01T21:18:57.452Z,100.00
2022-10-01T21:21:45.063Z,100.00
2022-10-01T21:24:38.793Z,100.00
2022-10-01T21:27:09.913Z,100.00
2022-10-01T21:29:43.386Z,100.00
2022-10-01T21:32:14.019Z,100.00
2022-10-01T21:34:48.019Z,100.00
2022-10-01T21:37:15.987Z,100.00
2022-10-01T21:39:43.776Z,100.00
2022-10-01T21:42:16.352Z,100.00
2022-10-01T21:44:56.199Z,100.00
2022-10-01T21:47:42.948Z,100.00
2022-10-01T21:50:25.735Z,100.00
2022-10-01T21:52:53.668Z,100.00
2022-10-01T21:55:41.485Z,100.00
2022-10-01T21:58:21.708Z,100.00
2022-10-01T22:00:55.341Z,100.00
2022-10-01T22:03:28.233Z,100.00
2022-10-01T22:06:05.254Z,100.00
2022-10-01T22:08:47.476Z,100.00
2022-10-01T22:11:18.624Z,100.00
2022-10-01T22:13:54.412Z,100.00
2022-10-01T22:16:26.104Z,100.00
2022-10-01T22:18:58.225Z,100.00
2022-10-01T22:21:26.093Z,100.00
2022-10-01T22:24:02.936Z,100.00
2022-10-01T22:26:34.251Z,100.00
2022-10-01T22:29:03.508Z,100.00
2022-10-01T22:31:34.187Z,100.00
2022-10-01T22:34:05.691Z,100.00
2022-10-01T22:36:41.653Z,100.00
2022-10-01T22:39:19.698Z,100.00
2022-10-01T22:41:52.037Z,100.00
2022-10-01T22:44:20.787Z,100.00
2022-10-01T22:46:55.721Z,100.00
2022-10-01T22:49:26.556Z,100.00
2022-10-01T22:52:13.185Z,100.00
2022-10-01T22:54:53.229Z,100.00
2022-10-01T22:57:25.207Z,100.00
2022-10-01T22:59:58.400Z,100.00
2022-10-01T23:02:36.507Z,100.00
2022-10-01T23:05:10.077Z,100.00
2022-10-01T23:07:45.780Z,100.00
2022-10-01T23:10:20.648Z,100.00
2022-10-01T23:13:11.847Z,100.00
2022-10-01T23:15:58.182Z,100.00
2022-10-01T23:18:47.221Z,100.00
2022-10-01T23:21:20.733Z,100.00
2022-10-01T23:23:59.320Z,100.00
2022-10-01T23:26:44.023Z,100.00
2022-10-01T23:29:23.444Z,100.00
2022-10-01T23:31:55.302Z,100.00
2022-10-01T23:34:30.427Z,100.00
2022-10-01T23:37:15.593Z,100.00
2022-10-01T23:39:47.986Z,100.00
2022-10-01T23:42:23.425Z,100.00
2022-10-01T23:45:10.412Z,100.00
2022-10-01T23:47:48.453Z,100.00
2022-10-01T23:50:30.674Z,100.00
2022-10-01T23:53:04.644Z,100.00
2022-10-01T23:58:35.455Z,100.00
